createdAt,value
2022-12-18T00:00:18.580Z,-6.87
2022-12-18T00:01:29.233Z,-6.85
2022-12-18T00:02:31.644Z,-6.84
2022-12-18T00:03:34.978Z,-6.89
2022-12-18T00:04:37.470Z,-6.91
2022-12-18T00:05:50.151Z,-6.93
2022-12-18T00:06:53.482Z,-6.92
2022-12-18T00:07:55.759Z,-6.90
2022-12-18T00:08:59.319Z,-6.94
2022-12-18T00:10:01.568Z,-6.97
2022-12-18T00:11:08.688Z,-6.95
2022-12-18T00:13:18.295Z,-6.93
2022-12-18T00:14:20.856Z,-6.94
2022-12-18T00:15:23.291Z,-6.94
2022-12-18T00:16:28.266Z,-6.90
2022-12-18T00:17:30.782Z,-6.92
2022-12-18T00:18:33.405Z,-6.89
2022-12-18T00:19:35.830Z,-6.95
2022-12-18T00:20:40.112Z,-6.93
2022-12-18T00:21:43.633Z,-6.93
2022-12-18T00:22:46.083Z,-6.93
2022-12-18T00:23:50.272Z,-6.93
2022-12-18T00:24:52.796Z,-6.92
2022-12-18T00:25:55.196Z,-6.91
2022-12-18T00:26:57.491Z,-6.87
2022-12-18T00:27:59.975Z,-6.87
2022-12-18T00:29:06.335Z,-6.85
2022-12-18T00:30:09.165Z,-6.79
2022-12-18T00:31:20.962Z,-6.76
2022-12-18T00:32:23.198Z,-6.75
2022-12-18T00:33:25.656Z,-6.67
2022-12-18T00:34:27.977Z,-6.73
2022-12-18T00:35:30.197Z,-6.73
2022-12-18T00:36:34.468Z,-6.77
2022-12-18T00:37:37.204Z,-6.84
2022-12-18T00:38:40.971Z,-6.82
2022-12-18T00:39:43.354Z,-6.87
2022-12-18T00:40:45.839Z,-6.89
2022-12-18T00:42:07.538Z,-6.86
2022-12-18T00:43:09.879Z,-6.92
2022-12-18T00:44:14.919Z,-6.91
2022-12-18T00:45:17.263Z,-6.92
2022-12-18T00:46:19.658Z,-6.95
2022-12-18T00:47:21.969Z,-6.95
2022-12-18T00:48:24.306Z,-6.93
2022-12-18T00:49:26.787Z,-6.94
2022-12-18T00:50:29.106Z,-6.95
2022-12-18T00:51:31.509Z,-6.98
2022-12-18T00:52:33.954Z,-6.97
2022-12-18T00:53:36.536Z,-6.97
2022-12-18T00:54:39.333Z,-6.99
2022-12-18T00:55:42.404Z,-6.99
2022-12-18T00:56:49.232Z,-7.02
2022-12-18T00:57:53.308Z,-7.01
2022-12-18T00:58:56.207Z,-7.06
2022-12-18T00:59:58.634Z,-7.08
2022-12-18T01:01:01.145Z,-7.06
2022-12-18T01:02:04.311Z,-7.07
2022-12-18T01:03:07.041Z,-7.06
2022-12-18T01:04:09.284Z,-7.02
2022-12-18T01:05:13.360Z,-7.02
2022-12-18T01:06:16.822Z,-7.00
2022-12-18T01:07:19.566Z,-6.98
2022-12-18T01:08:21.906Z,-6.98
2022-12-18T01:09:24.528Z,-6.98
2022-12-18T01:10:29.204Z,-6.96
2022-12-18T01:11:33.990Z,-6.97
2022-12-18T01:12:36.804Z,-6.95
2022-12-18T01:13:40.573Z,-6.95
2022-12-18T01:14:43.199Z,-6.97
2022-12-18T01:15:51.802Z,-6.92
2022-12-18T01:16:54.650Z,-6.88
2022-12-18T01:17:56.962Z,-6.87
2022-12-18T01:18:59.214Z,-6.86
2022-12-18T01:20:03.483Z,-6.84
2022-12-18T01:21:10.301Z,-6.88
2022-12-18T01:22:13.264Z,-6.89
2022-12-18T01:23:15.507Z,-6.87
2022-12-18T01:24:18.110Z,-6.88
2022-12-18T01:25:20.626Z,-6.89
2022-12-18T01:26:23.745Z,-6.85
2022-12-18T01:27:26.843Z,-6.89
2022-12-18T01:28:29.386Z,-6.93
2022-12-18T01:29:31.903Z,-6.98
2022-12-18T01:30:34.688Z,-6.95
2022-12-18T01:31:37.681Z,-6.91
2022-12-18T01:32:40.005Z,-6.90
2022-12-18T01:33:42.685Z,-6.89
2022-12-18T01:34:44.913Z,-6.92
2022-12-18T01:35:47.408Z,-6.92
2022-12-18T01:36:50.363Z,-6.96
2022-12-18T01:37:56.092Z,-6.87
2022-12-18T01:39:01.379Z,-6.84
2022-12-18T01:40:04.430Z,-6.87
2022-12-18T01:41:06.765Z,-6.82
2022-12-18T01:42:13.515Z,-6.87
2022-12-18T01:43:16.251Z,-6.86
2022-12-18T01:44:59.005Z,-6.87
2022-12-18T01:46:01.415Z,-6.85
2022-12-18T01:47:03.835Z,-6.87
2022-12-18T01:48:09.586Z,-6.87
2022-12-18T01:49:12.889Z,-6.91
2022-12-18T01:50:26.032Z,-6.86
2022-12-18T01:51:31.665Z,-6.82
2022-12-18T01:52:35.588Z,-6.78
2022-12-18T01:53:40.083Z,-6.83
2022-12-18T01:54:43.053Z,-6.77
2022-12-18T01:55:51.307Z,-6.76
2022-12-18T01:56:53.552Z,-6.77
2022-12-18T01:57:58.563Z,-6.79
2022-12-18T01:59:04.056Z,-6.76
